Time;durP1;ratioP1;P1;durP2;ratioP2;P2;SDS_P1;SDS_P2;PMS_P1;PMS_P2;Temp;Humidity;BMP_temperature;BMP_pressure;BME280_temperature;BME280_humidity;BME280_pressure;Samples;Min_cycle;Max_cycle;Signal;HPM_P1;HPM_P2
2023/04/18 00:01:38;;;;;;;;;;;12.00;99.90;;;;;;4996461;28;19909;-75
2023/04/18 00:04:04;;;;;;;;;;;12.00;99.90;;;;;;4999677;28;19920;-75
2023/04/18 00:06:30;;;;;;;;;;;12.00;99.90;;;;;;4974431;28;20458;-76
2023/04/18 00:08:55;;;;;;;;;;;12.00;99.90;;;;;;4973907;28;19913;-75
2023/04/18 00:11:22;;;;;;;;;;;12.00;99.90;;;;;;4984726;28;19909;-75
2023/04/18 00:13:49;;;;;;;;;;;12.00;99.90;;;;;;4980752;28;19909;-78
2023/04/18 00:16:16;;;;;;;;;;;12.00;99.90;;;;;;4987235;28;19959;-76
2023/04/18 00:18:42;;;;;;;;;;;12.00;99.90;;;;;;4991825;28;19916;-76
2023/04/18 00:21:07;;;;;;;;;;;12.00;99.90;;;;;;4986448;28;19906;-74
2023/04/18 00:23:34;;;;;;;;;;;12.00;99.90;;;;;;4988629;28;19952;-76
2023/04/18 00:25:59;;;;;;;;;;;12.00;99.90;;;;;;4971811;28;21295;-75
2023/04/18 00:28:25;;;;;;;;;;;12.00;99.90;;;;;;4978701;28;19921;-75
2023/04/18 00:30:52;;;;;;;;;;;11.90;99.90;;;;;;4990845;28;20834;-75
2023/04/18 00:33:18;;;;;;;;;;;11.90;99.90;;;;;;4993480;28;19909;-75
2023/04/18 00:35:44;;;;;;;;;;;11.80;99.90;;;;;;4989560;28;20008;-75
2023/04/18 00:38:10;;;;;;;;;;;11.80;99.90;;;;;;4975630;28;19993;-74
2023/04/18 00:40:37;;;;;;;;;;;11.80;99.90;;;;;;4995721;28;19945;-75
2023/04/18 00:43:11;;;;;;;;;;;11.80;99.90;;;;;;4979504;28;19967;-75
2023/04/18 00:45:36;;;;;;;;;;;11.80;99.90;;;;;;4986540;28;20535;-75
2023/04/18 00:48:02;;;;;;;;;;;11.80;99.90;;;;;;4995922;28;19996;-76
2023/04/18 00:50:31;;;;;;;;;;;11.80;99.90;;;;;;4990435;28;19913;-75
2023/04/18 00:52:58;;;;;;;;;;;11.80;99.90;;;;;;4981416;28;19914;-75
2023/04/18 00:55:30;;;;;;;;;;;11.80;99.90;;;;;;4977877;28;19948;-76
2023/04/18 00:57:55;;;;;;;;;;;11.80;99.90;;;;;;4976465;28;20135;-75
2023/04/18 01:00:21;;;;;;;;;;;11.70;99.90;;;;;;4993599;28;19913;-74
2023/04/18 01:02:51;;;;;;;;;;;11.70;99.90;;;;;;4985670;28;20487;-74
2023/04/18 01:05:20;;;;;;;;;;;11.70;99.90;;;;;;4976550;28;19909;-75
2023/04/18 01:07:45;;;;;;;;;;;11.70;99.90;;;;;;4993922;28;19943;-75
2023/04/18 01:10:12;;;;;;;;;;;11.70;99.90;;;;;;4987475;28;19920;-74
2023/04/18 01:12:38;;;;;;;;;;;11.70;99.90;;;;;;4986946;28;19930;-75
2023/04/18 01:15:04;;;;;;;;;;;11.70;99.90;;;;;;4996452;28;20040;-74
2023/04/18 01:17:33;;;;;;;;;;;11.70;99.90;;;;;;4978757;28;19905;-75
2023/04/18 01:20:00;;;;;;;;;;;11.80;99.90;;;;;;4979207;28;19973;-75
2023/04/18 01:22:27;;;;;;;;;;;11.80;99.90;;;;;;4984272;28;19967;-75
2023/04/18 01:24:57;;;;;;;;;;;11.80;99.90;;;;;;4989274;28;19914;-75
2023/04/18 01:27:23;;;;;;;;;;;11.70;99.90;;;;;;4977877;28;20047;-75
2023/04/18 01:29:51;;;;;;;;;;;11.70;99.90;;;;;;4990629;28;20004;-75
2023/04/18 01:32:19;;;;;;;;;;;11.70;99.90;;;;;;4991523;28;19905;-75
2023/04/18 01:34:44;;;;;;;;;;;11.80;99.90;;;;;;4974163;28;19905;-75
2023/04/18 01:37:13;;;;;;;;;;;11.80;99.90;;;;;;4976321;28;19909;-75
2023/04/18 01:39:40;;;;;;;;;;;11.80;99.90;;;;;;4974753;28;19909;-75
2023/04/18 01:42:06;;;;;;;;;;;11.80;99.90;;;;;;4990070;28;19956;-75
2023/04/18 01:44:35;;;;;;;;;;;11.80;99.90;;;;;;4976954;28;20318;-76
2023/04/18 01:47:06;;;;;;;;;;;11.80;99.90;;;;;;4981303;28;19905;-75
2023/04/18 01:49:35;;;;;;;;;;;11.80;99.90;;;;;;4985038;28;19909;-76
2023/04/18 01:52:07;;;;;;;;;;;11.80;99.90;;;;;;4977083;28;19905;-75
2023/04/18 01:54:32;;;;;;;;;;;11.80;99.90;;;;;;4990009;28;19912;-75
2023/04/18 01:57:01;;;;;;;;;;;11.70;99.90;;;;;;4979369;28;19909;-76
2023/04/18 01:59:26;;;;;;;;;;;11.70;99.90;;;;;;4980615;28;20000;-75
2023/04/18 02:01:53;;;;;;;;;;;11.70;99.90;;;;;;4988366;28;19905;-75
2023/04/18 02:04:19;;;;;;;;;;;11.70;99.90;;;;;;4974666;28;19905;-75
2023/04/18 02:06:44;;;;;;;;;;;11.70;99.90;;;;;;4991435;28;19933;-75
2023/04/18 02:09:12;;;;;;;;;;;11.60;99.90;;;;;;4993292;28;19909;-75
2023/04/18 02:11:37;;;;;;;;;;;11.60;99.90;;;;;;4990990;28;19910;-75
2023/04/18 02:14:10;;;;;;;;;;;11.70;99.90;;;;;;4984694;28;19916;-75
2023/04/18 02:16:36;;;;;;;;;;;11.70;99.90;;;;;;4991120;28;19906;-75
2023/04/18 02:19:03;;;;;;;;;;;11.70;99.90;;;;;;4974054;28;20663;-75
2023/04/18 02:21:29;;;;;;;;;;;11.60;99.90;;;;;;4990516;28;19910;-74
2023/04/18 02:23:56;;;;;;;;;;;11.60;99.90;;;;;;4991222;28;19967;-75
2023/04/18 02:26:25;;;;;;;;;;;11.60;99.90;;;;;;4990600;28;19909;-75
2023/04/18 02:28:50;;;;;;;;;;;11.60;99.90;;;;;;4989561;28;19920;-75
2023/04/18 02:31:20;;;;;;;;;;;11.60;99.90;;;;;;4994245;28;19905;-75
2023/04/18 02:33:47;;;;;;;;;;;11.50;99.90;;;;;;4997154;28;20587;-75
2023/04/18 02:36:16;;;;;;;;;;;11.50;99.90;;;;;;4981036;28;19959;-75
2023/04/18 02:38:44;;;;;;;;;;;11.50;99.90;;;;;;4995638;28;19943;-75
2023/04/18 02:41:14;;;;;;;;;;;11.50;99.90;;;;;;4989815;28;19963;-75
2023/04/18 02:43:41;;;;;;;;;;;11.50;99.90;;;;;;4993618;28;19913;-75
2023/04/18 02:46:08;;;;;;;;;;;11.50;99.90;;;;;;4985366;28;20467;-75
2023/04/18 02:48:35;;;;;;;;;;;11.60;99.90;;;;;;4991099;28;19920;-75
2023/04/18 02:51:02;;;;;;;;;;;11.50;99.90;;;;;;4997986;28;19910;-75
2023/04/18 02:53:28;;;;;;;;;;;11.50;99.90;;;;;;4989200;28;19939;-75
2023/04/18 02:55:54;;;;;;;;;;;11.40;99.90;;;;;;4990581;28;19913;-75
2023/04/18 02:58:21;;;;;;;;;;;11.40;99.90;;;;;;4984885;28;19960;-75
2023/04/18 03:00:51;;;;;;;;;;;11.50;99.90;;;;;;4980426;28;20366;-75
2023/04/18 03:03:18;;;;;;;;;;;11.50;99.90;;;;;;4981365;28;20323;-75
2023/04/18 03:05:45;;;;;;;;;;;11.50;99.90;;;;;;4997655;28;20362;-75
2023/04/18 03:08:10;;;;;;;;;;;11.50;99.90;;;;;;4978933;28;20355;-75
2023/04/18 03:10:38;;;;;;;;;;;11.60;99.90;;;;;;4997865;28;19913;-75
2023/04/18 03:13:06;;;;;;;;;;;11.50;99.90;;;;;;4990882;28;20379;-74
2023/04/18 03:15:34;;;;;;;;;;;11.50;99.90;;;;;;4996013;28;20863;-75
2023/04/18 03:18:00;;;;;;;;;;;11.60;99.90;;;;;;4979562;28;19921;-75
2023/04/18 03:20:28;;;;;;;;;;;11.60;99.90;;;;;;4988358;28;19920;-75
2023/04/18 03:22:54;;;;;;;;;;;11.50;99.90;;;;;;4980303;28;19913;-75
2023/04/18 03:25:20;;;;;;;;;;;11.50;99.90;;;;;;4991920;28;19905;-75
2023/04/18 03:27:47;;;;;;;;;;;11.50;99.90;;;;;;4991166;28;19914;-75
2023/04/18 03:30:16;;;;;;;;;;;11.40;99.90;;;;;;4983861;28;19905;-75
2023/04/18 03:32:41;;;;;;;;;;;11.40;99.90;;;;;;4994714;28;19912;-75
2023/04/18 03:35:07;;;;;;;;;;;11.50;99.90;;;;;;4984124;28;19985;-75
2023/04/18 03:37:32;;;;;;;;;;;11.50;99.90;;;;;;4993016;28;20649;-75
2023/04/18 03:40:04;;;;;;;;;;;11.50;99.90;;;;;;4990986;28;19915;-75
2023/04/18 03:42:30;;;;;;;;;;;11.40;99.90;;;;;;4979697;28;20263;-75
2023/04/18 03:44:58;;;;;;;;;;;11.50;99.90;;;;;;4994060;28;19996;-75
2023/04/18 03:47:23;;;;;;;;;;;11.50;99.90;;;;;;4983137;28;19909;-75
2023/04/18 03:49:55;;;;;;;;;;;11.50;99.90;;;;;;4990763;28;20373;-75
2023/04/18 03:52:26;;;;;;;;;;;11.50;99.90;;;;;;4994455;28;19944;-75
2023/04/18 03:54:55;;;;;;;;;;;11.50;99.90;;;;;;4982953;28;19905;-75
2023/04/18 03:57:21;;;;;;;;;;;11.50;99.90;;;;;;4992407;28;19905;-75
2023/04/18 03:59:50;;;;;;;;;;;11.50;99.90;;;;;;4994083;28;19957;-76
2023/04/18 04:02:16;;;;;;;;;;;11.50;99.90;;;;;;4991107;28;19906;-75
2023/04/18 04:04:47;;;;;;;;;;;11.50;99.90;;;;;;4981511;28;19909;-76
2023/04/18 04:07:15;;;;;;;;;;;11.50;99.90;;;;;;4979313;28;19916;-76
2023/04/18 04:09:43;;;;;;;;;;;11.50;99.90;;;;;;4992085;28;19905;-75
2023/04/18 04:12:11;;;;;;;;;;;11.50;99.90;;;;;;4983152;28;19905;-74
2023/04/18 04:14:40;;;;;;;;;;;11.50;99.90;;;;;;4976594;28;19921;-76
2023/04/18 04:17:06;;;;;;;;;;;11.50;99.90;;;;;;4982873;28;19967;-76
2023/04/18 04:19:37;;;;;;;;;;;11.40;99.90;;;;;;4980460;28;19963;-75
2023/04/18 04:22:05;;;;;;;;;;;11.40;99.90;;;;;;4978207;28;20048;-75
2023/04/18 04:24:32;;;;;;;;;;;11.30;99.90;;;;;;4987055;28;19989;-76
2023/04/18 04:26:58;;;;;;;;;;;11.30;99.90;;;;;;4980624;28;19935;-75
2023/04/18 04:29:31;;;;;;;;;;;11.30;99.90;;;;;;4974284;28;19913;-76
2023/04/18 04:31:58;;;;;;;;;;;11.20;99.90;;;;;;4979975;28;19934;-76
2023/04/18 04:34:23;;;;;;;;;;;11.20;99.90;;;;;;4993056;28;19906;-76
2023/04/18 04:36:49;;;;;;;;;;;11.20;99.90;;;;;;4979118;28;19917;-76
2023/04/18 04:39:16;;;;;;;;;;;11.20;99.90;;;;;;4990250;28;20254;-76
2023/04/18 04:41:41;;;;;;;;;;;11.30;99.90;;;;;;4993921;28;20360;-76
2023/04/18 04:44:09;;;;;;;;;;;11.30;99.90;;;;;;4972898;28;19921;-77
2023/04/18 04:46:38;;;;;;;;;;;11.40;99.90;;;;;;4993902;28;19920;-76
2023/04/18 04:49:04;;;;;;;;;;;11.40;99.90;;;;;;4993947;28;19936;-75
2023/04/18 04:51:31;;;;;;;;;;;11.40;99.90;;;;;;4990777;28;19910;-76
2023/04/18 04:53:58;;;;;;;;;;;11.40;99.90;;;;;;4988232;28;19913;-75
2023/04/18 04:56:24;;;;;;;;;;;11.40;99.90;;;;;;4978129;28;19910;-76
2023/04/18 04:59:06;;;;;;;;;;;11.50;99.90;;;;;;4977260;28;20285;-76
2023/04/18 05:01:37;;;;;;;;;;;11.50;99.90;;;;;;4992030;28;19978;-76
2023/04/18 05:04:02;;;;;;;;;;;11.50;99.90;;;;;;4978120;28;19917;-75
2023/04/18 05:06:28;;;;;;;;;;;11.50;99.90;;;;;;4977850;28;19905;-75
2023/04/18 05:08:58;;;;;;;;;;;11.50;99.90;;;;;;4974484;28;20470;-75
2023/04/18 05:11:23;;;;;;;;;;;11.40;99.90;;;;;;4992597;28;20635;-75
2023/04/18 05:14:02;;;;;;;;;;;11.40;99.90;;;;;;4983681;28;20039;-75
2023/04/18 05:16:30;;;;;;;;;;;11.30;99.90;;;;;;4994514;28;19959;-75
2023/04/18 05:18:56;;;;;;;;;;;11.40;99.90;;;;;;4987963;28;20491;-75
2023/04/18 05:21:24;;;;;;;;;;;11.30;99.90;;;;;;4978339;28;19905;-76
2023/04/18 05:23:53;;;;;;;;;;;11.30;99.90;;;;;;4981191;28;19944;-75
2023/04/18 05:26:19;;;;;;;;;;;11.10;99.90;;;;;;4991210;28;19913;-74
2023/04/18 05:28:46;;;;;;;;;;;11.20;99.90;;;;;;4992119;28;19909;-76
2023/04/18 05:31:19;;;;;;;;;;;11.20;99.90;;;;;;4987633;28;19967;-75
2023/04/18 05:33:46;;;;;;;;;;;11.30;99.90;;;;;;4974604;28;19910;-75
2023/04/18 05:36:12;;;;;;;;;;;11.30;99.90;;;;;;4978141;28;19983;-75
2023/04/18 05:38:41;;;;;;;;;;;11.40;99.90;;;;;;4979444;28;20004;-75
2023/04/18 05:41:06;;;;;;;;;;;11.40;99.90;;;;;;4989359;28;19905;-75
2023/04/18 05:43:37;;;;;;;;;;;11.50;99.90;;;;;;4981573;28;19913;-75
2023/04/18 05:46:05;;;;;;;;;;;11.50;99.90;;;;;;4978140;28;20391;-75
2023/04/18 05:48:33;;;;;;;;;;;11.50;99.90;;;;;;4978469;28;19916;-76
2023/04/18 05:51:00;;;;;;;;;;;11.50;99.90;;;;;;4989715;28;19917;-75
2023/04/18 05:53:27;;;;;;;;;;;11.40;99.90;;;;;;4977204;28;19967;-75
2023/04/18 05:55:53;;;;;;;;;;;11.50;99.90;;;;;;4988871;28;19909;-79
2023/04/18 05:58:20;;;;;;;;;;;11.50;99.90;;;;;;4976779;28;19912;-79
2023/04/18 06:00:53;;;;;;;;;;;11.50;99.90;;;;;;4975918;28;19917;-79
2023/04/18 06:03:19;;;;;;;;;;;11.70;99.90;;;;;;4993908;28;19905;-80
2023/04/18 06:05:46;;;;;;;;;;;11.70;99.90;;;;;;4981658;28;19937;-78
2023/04/18 06:08:26;;;;;;;;;;;11.80;99.90;;;;;;4993026;28;19916;-78
2023/04/18 06:10:53;;;;;;;;;;;11.60;99.90;;;;;;4995233;28;19911;-74
2023/04/18 06:13:19;;;;;;;;;;;11.60;99.90;;;;;;4989405;28;19905;-75
2023/04/18 06:15:46;;;;;;;;;;;11.70;99.90;;;;;;4982981;28;19909;-74
2023/04/18 06:18:12;;;;;;;;;;;11.70;99.90;;;;;;4978693;28;20537;-74
2023/04/18 06:20:44;;;;;;;;;;;11.80;99.90;;;;;;4985894;28;20021;-74
2023/04/18 06:23:09;;;;;;;;;;;11.80;99.90;;;;;;4991204;28;20625;-75
2023/04/18 06:25:35;;;;;;;;;;;11.90;99.90;;;;;;4997187;28;19910;-74
2023/04/18 06:28:01;;;;;;;;;;;11.80;99.90;;;;;;4990190;28;19913;-74
2023/04/18 06:30:28;;;;;;;;;;;12.00;99.90;;;;;;4990988;28;20669;-74
2023/04/18 06:32:54;;;;;;;;;;;12.00;99.90;;;;;;4996411;28;20594;-74
2023/04/18 06:35:21;;;;;;;;;;;12.10;99.90;;;;;;4993492;28;19959;-74
2023/04/18 06:37:47;;;;;;;;;;;12.20;99.90;;;;;;4979294;28;19912;-74
2023/04/18 06:40:14;;;;;;;;;;;12.30;99.90;;;;;;4989248;28;20651;-75
2023/04/18 06:42:40;;;;;;;;;;;12.30;99.90;;;;;;4974327;28;19945;-75
2023/04/18 06:45:06;;;;;;;;;;;12.20;99.90;;;;;;4991371;28;20298;-74
2023/04/18 06:47:32;;;;;;;;;;;12.10;99.90;;;;;;4995072;28;20377;-75
2023/04/18 06:49:57;;;;;;;;;;;12.10;99.90;;;;;;4980423;28;19932;-74
2023/04/18 06:52:24;;;;;;;;;;;12.00;99.90;;;;;;4994140;28;20004;-75
2023/04/18 06:54:53;;;;;;;;;;;12.00;99.90;;;;;;4979528;28;19952;-75
2023/04/18 06:57:18;;;;;;;;;;;12.00;99.90;;;;;;4991984;28;19956;-74
2023/04/18 06:59:44;;;;;;;;;;;11.90;99.90;;;;;;4994816;28;20356;-75
2023/04/18 07:02:09;;;;;;;;;;;12.00;99.90;;;;;;4996214;28;19917;-74
2023/04/18 07:04:35;;;;;;;;;;;12.00;99.90;;;;;;4988249;28;19905;-74
2023/04/18 07:07:04;;;;;;;;;;;12.10;99.90;;;;;;4995126;28;19920;-75
2023/04/18 07:09:30;;;;;;;;;;;12.20;99.90;;;;;;4990890;28;20570;-74
2023/04/18 07:11:56;;;;;;;;;;;12.20;99.90;;;;;;4992512;28;19959;-75
2023/04/18 07:14:22;;;;;;;;;;;12.20;99.90;;;;;;4981039;28;19913;-75
2023/04/18 07:16:48;;;;;;;;;;;12.20;99.90;;;;;;4993752;28;20355;-74
2023/04/18 07:19:14;;;;;;;;;;;12.30;99.90;;;;;;4974768;28;19916;-74
2023/04/18 07:21:41;;;;;;;;;;;12.30;99.90;;;;;;4990078;28;19906;-75
2023/04/18 07:24:07;;;;;;;;;;;12.40;99.90;;;;;;4977777;28;19961;-75
2023/04/18 07:26:32;;;;;;;;;;;12.40;99.90;;;;;;4990341;28;19906;-74
2023/04/18 07:28:59;;;;;;;;;;;12.60;99.90;;;;;;4993331;28;19996;-74
2023/04/18 07:31:27;;;;;;;;;;;12.60;99.90;;;;;;4997789;28;19916;-74
2023/04/18 07:33:55;;;;;;;;;;;12.60;99.90;;;;;;4996795;28;19909;-75
2023/04/18 07:36:21;;;;;;;;;;;12.50;99.90;;;;;;4992547;28;20627;-74
2023/04/18 07:38:48;;;;;;;;;;;12.30;99.90;;;;;;4995813;28;19906;-74
2023/04/18 07:41:14;;;;;;;;;;;12.30;99.90;;;;;;4977600;28;19910;-75
2023/04/18 07:43:40;;;;;;;;;;;12.30;99.90;;;;;;4978381;28;19983;-75
2023/04/18 07:46:06;;;;;;;;;;;12.40;99.90;;;;;;4993319;28;19906;-74
2023/04/18 07:48:32;;;;;;;;;;;12.50;99.90;;;;;;4994101;28;19913;-75
2023/04/18 07:50:58;;;;;;;;;;;12.60;99.90;;;;;;4992995;28;19914;-74
2023/04/18 07:53:29;;;;;;;;;;;12.50;99.90;;;;;;4993775;28;20004;-75
2023/04/18 07:55:56;;;;;;;;;;;12.50;99.90;;;;;;4991091;28;19951;-74
2023/04/18 07:58:21;;;;;;;;;;;12.60;99.90;;;;;;4992353;28;20335;-74
2023/04/18 08:00:47;;;;;;;;;;;12.60;99.90;;;;;;4980868;28;19923;-74
2023/04/18 08:03:14;;;;;;;;;;;12.60;99.90;;;;;;4979149;28;20017;-74
2023/04/18 08:05:41;;;;;;;;;;;12.60;99.90;;;;;;4978811;28;19910;-75
2023/04/18 08:08:08;;;;;;;;;;;12.70;99.90;;;;;;4992383;28;19917;-75
2023/04/18 08:10:35;;;;;;;;;;;12.70;99.90;;;;;;4977399;28;20336;-74
2023/04/18 08:13:01;;;;;;;;;;;12.70;99.90;;;;;;4991427;28;19924;-75
2023/04/18 08:15:31;;;;;;;;;;;12.70;99.90;;;;;;4987203;28;19930;-75
2023/04/18 08:17:57;;;;;;;;;;;12.70;99.90;;;;;;4988420;28;20713;-75
2023/04/18 08:20:23;;;;;;;;;;;12.80;99.90;;;;;;4979812;28;19909;-75
2023/04/18 08:22:49;;;;;;;;;;;12.80;99.90;;;;;;4991926;28;19912;-75
2023/04/18 08:25:15;;;;;;;;;;;12.90;99.90;;;;;;4981089;28;19964;-74
2023/04/18 08:27:42;;;;;;;;;;;13.00;99.90;;;;;;4988811;28;19910;-74
2023/04/18 08:30:09;;;;;;;;;;;12.90;99.90;;;;;;4996489;28;20063;-74
2023/04/18 08:32:37;;;;;;;;;;;13.00;99.90;;;;;;4975835;28;19909;-74
2023/04/18 08:35:04;;;;;;;;;;;13.00;99.90;;;;;;4989823;28;20417;-74
2023/04/18 08:37:34;;;;;;;;;;;12.90;99.90;;;;;;4979950;28;21258;-74
2023/04/18 08:40:00;;;;;;;;;;;12.90;99.90;;;;;;4991721;28;19916;-74
2023/04/18 08:42:26;;;;;;;;;;;12.70;99.90;;;;;;4993197;28;19949;-74
2023/04/18 08:44:53;;;;;;;;;;;12.60;99.90;;;;;;4995547;28;19948;-75
2023/04/18 08:47:20;;;;;;;;;;;12.70;99.90;;;;;;4993525;28;19963;-75
2023/04/18 08:49:45;;;;;;;;;;;12.60;99.90;;;;;;4993851;28;20267;-75
2023/04/18 08:52:12;;;;;;;;;;;12.70;99.90;;;;;;4994416;28;19906;-74
2023/04/18 08:54:41;;;;;;;;;;;12.70;99.90;;;;;;4974420;28;20682;-74
2023/04/18 08:57:15;;;;;;;;;;;12.60;99.90;;;;;;4976183;28;20255;-75
2023/04/18 08:59:44;;;;;;;;;;;12.40;99.90;;;;;;4985511;28;19944;-74
2023/04/18 09:02:10;;;;;;;;;;;12.60;99.90;;;;;;4977437;28;19921;-75
2023/04/18 09:04:38;;;;;;;;;;;12.80;99.90;;;;;;4993896;28;19913;-74
2023/04/18 09:07:08;;;;;;;;;;;13.00;99.90;;;;;;4976554;28;19906;-74
2023/04/18 09:09:49;;;;;;;;;;;13.10;99.90;;;;;;4997693;28;20571;-74
2023/04/18 09:12:21;;;;;;;;;;;13.50;99.90;;;;;;4989823;28;19906;-74
2023/04/18 09:15:08;;;;;;;;;;;13.50;99.90;;;;;;4988237;28;19910;-74
2023/04/18 09:17:49;;;;;;;;;;;13.60;99.90;;;;;;4996639;28;19913;-75
2023/04/18 09:20:33;;;;;;;;;;;14.20;99.90;;;;;;4990088;28;19960;-74
2023/04/18 09:23:02;;;;;;;;;;;14.50;99.90;;;;;;4990857;28;19952;-74
2023/04/18 09:25:40;;;;;;;;;;;15.00;99.90;;;;;;4989288;28;19941;-74
2023/04/18 09:28:22;;;;;;;;;;;15.20;99.90;;;;;;4995078;28;19921;-74
2023/04/18 09:30:50;;;;;;;;;;;15.30;99.90;;;;;;4986609;28;20270;-75
2023/04/18 09:33:16;;;;;;;;;;;15.10;99.90;;;;;;4992416;28;19905;-74
2023/04/18 09:35:42;;;;;;;;;;;15.00;99.90;;;;;;4997667;28;19909;-74
2023/04/18 09:38:13;;;;;;;;;;;15.10;99.90;;;;;;4987484;28;19920;-74
2023/04/18 09:40:39;;;;;;;;;;;15.20;99.90;;;;;;4975276;28;19917;-74
2023/04/18 09:43:19;;;;;;;;;;;14.70;99.90;;;;;;4990978;28;19913;-74
2023/04/18 09:45:49;;;;;;;;;;;14.50;99.90;;;;;;4975552;28;19906;-74
2023/04/18 09:48:15;;;;;;;;;;;14.80;99.90;;;;;;4986001;28;19921;-75
2023/04/18 09:50:41;;;;;;;;;;;15.30;99.90;;;;;;4994314;28;19909;-74
2023/04/18 09:53:07;;;;;;;;;;;15.40;99.90;;;;;;4989458;28;19913;-74
2023/04/18 09:55:33;;;;;;;;;;;15.40;99.90;;;;;;4990431;28;19913;-74
2023/04/18 09:58:02;;;;;;;;;;;15.10;99.90;;;;;;4993032;28;19928;-74
2023/04/18 10:00:29;;;;;;;;;;;15.40;99.90;;;;;;4987308;28;19928;-74
2023/04/18 10:03:01;;;;;;;;;;;15.80;99.90;;;;;;4988739;28;20491;-74
2023/04/18 10:05:29;;;;;;;;;;;16.30;99.90;;;;;;4994356;28;21419;-75
2023/04/18 10:07:55;;;;;;;;;;;16.40;99.90;;;;;;4976779;28;20359;-74
2023/04/18 10:10:21;;;;;;;;;;;16.80;99.90;;;;;;4991176;28;20689;-75
2023/04/18 10:12:49;;;;;;;;;;;16.90;99.90;;;;;;4976677;28;19959;-75
2023/04/18 10:15:16;;;;;;;;;;;17.00;99.90;;;;;;4987678;28;19906;-74
2023/04/18 10:17:43;;;;;;;;;;;16.60;99.90;;;;;;4988853;28;19952;-74
2023/04/18 10:20:15;;;;;;;;;;;16.60;99.90;;;;;;4973692;28;20382;-75
2023/04/18 10:22:41;;;;;;;;;;;16.50;99.90;;;;;;4974498;28;19909;-75
2023/04/18 10:25:07;;;;;;;;;;;16.40;99.90;;;;;;4989208;28;19940;-74
2023/04/18 10:27:48;;;;;;;;;;;16.90;99.90;;;;;;4986626;28;19956;-75
2023/04/18 10:30:14;;;;;;;;;;;17.30;99.90;;;;;;4986943;28;20638;-75
2023/04/18 10:32:39;;;;;;;;;;;17.80;99.90;;;;;;4976351;28;21343;-75
2023/04/18 10:35:06;;;;;;;;;;;18.20;99.90;;;;;;4974706;28;19956;-74
2023/04/18 10:37:32;;;;;;;;;;;18.80;99.60;;;;;;4986682;28;19914;-74
2023/04/18 10:40:04;;;;;;;;;;;19.20;98.70;;;;;;4979702;28;19947;-74
2023/04/18 10:42:50;;;;;;;;;;;19.20;97.80;;;;;;4983440;28;19914;-74
2023/04/18 10:45:19;;;;;;;;;;;18.60;98.30;;;;;;4979962;28;20367;-74
2023/04/18 10:47:47;;;;;;;;;;;18.30;99.00;;;;;;4989049;28;19906;-74
2023/04/18 10:50:13;;;;;;;;;;;17.60;99.70;;;;;;4989384;28;19906;-74
2023/04/18 10:52:45;;;;;;;;;;;17.20;99.90;;;;;;4987885;28;20346;-75
2023/04/18 10:55:12;;;;;;;;;;;17.40;99.90;;;;;;4980015;28;19913;-75
2023/04/18 10:57:46;;;;;;;;;;;17.60;99.90;;;;;;4992656;28;19921;-74
2023/04/18 11:00:13;;;;;;;;;;;18.10;99.80;;;;;;4991136;28;19913;-75
2023/04/18 11:02:46;;;;;;;;;;;18.80;98.90;;;;;;4978976;28;19932;-75
2023/04/18 11:05:17;;;;;;;;;;;18.90;98.20;;;;;;4984529;28;19913;-75
2023/04/18 11:07:47;;;;;;;;;;;19.20;97.40;;;;;;4977661;28;19916;-72
2023/04/18 11:10:15;;;;;;;;;;;19.70;98.20;;;;;;4987018;28;19976;-73
2023/04/18 11:12:41;;;;;;;;;;;19.60;97.70;;;;;;4988698;28;19909;-73
2023/04/18 11:15:16;;;;;;;;;;;19.70;97.30;;;;;;4978065;28;20375;-72
2023/04/18 11:17:42;;;;;;;;;;;19.60;97.40;;;;;;4998889;28;20388;-72
2023/04/18 11:20:09;;;;;;;;;;;19.60;97.10;;;;;;4986772;28;19957;-73
2023/04/18 11:22:55;;;;;;;;;;;19.90;96.60;;;;;;4987154;28;20347;-72
2023/04/18 11:25:30;;;;;;;;;;;19.00;96.20;;;;;;4991700;28;20499;-73
2023/04/18 11:28:00;;;;;;;;;;;19.30;97.50;;;;;;4971829;28;19914;-74
2023/04/18 11:30:27;;;;;;;;;;;19.80;96.80;;;;;;4975575;28;19910;-73
2023/04/18 11:32:52;;;;;;;;;;;20.00;96.40;;;;;;4988025;28;19905;-72
2023/04/18 11:35:18;;;;;;;;;;;20.80;95.70;;;;;;4989743;28;19947;-73
2023/04/18 11:37:48;;;;;;;;;;;20.70;94.40;;;;;;4989821;28;20012;-72
2023/04/18 11:40:15;;;;;;;;;;;20.00;95.80;;;;;;4991070;28;19905;-73
2023/04/18 11:42:40;;;;;;;;;;;19.80;95.60;;;;;;4993438;28;19917;-72
2023/04/18 11:45:15;;;;;;;;;;;19.90;96.00;;;;;;4986711;28;19909;-72
2023/04/18 11:47:42;;;;;;;;;;;19.90;95.30;;;;;;4993396;28;19909;-75
2023/04/18 11:50:08;;;;;;;;;;;20.00;95.10;;;;;;4993379;28;19992;-75
2023/04/18 11:52:34;;;;;;;;;;;19.40;95.60;;;;;;4988628;28;19917;-74
2023/04/18 11:55:13;;;;;;;;;;;19.10;96.10;;;;;;4979428;28;21250;-75
2023/04/18 11:57:40;;;;;;;;;;;19.00;97.00;;;;;;4992836;28;19920;-75
2023/04/18 12:00:07;;;;;;;;;;;19.20;96.80;;;;;;4978622;28;19956;-75
2023/04/18 12:02:41;;;;;;;;;;;18.70;97.10;;;;;;4974645;28;19913;-75
2023/04/18 12:05:09;;;;;;;;;;;18.80;97.30;;;;;;4980686;28;19909;-76
2023/04/18 12:07:38;;;;;;;;;;;18.90;96.90;;;;;;4995115;28;19913;-75
2023/04/18 12:10:08;;;;;;;;;;;19.20;96.60;;;;;;4978590;28;19913;-76
2023/04/18 12:12:35;;;;;;;;;;;19.20;96.50;;;;;;4973844;28;19914;-74
2023/04/18 12:15:02;;;;;;;;;;;18.60;97.10;;;;;;4983275;28;19989;-74
2023/04/18 12:17:28;;;;;;;;;;;18.20;98.30;;;;;;4977358;28;19920;-76
2023/04/18 12:19:54;;;;;;;;;;;17.80;98.90;;;;;;4984691;28;19909;-75
2023/04/18 12:22:35;;;;;;;;;;;17.60;99.10;;;;;;4989953;28;19948;-75
2023/04/18 12:28:04;;;;;;;;;;;17.10;99.90;;;;;;5510149;23;19936;-78
2023/04/18 12:30:31;;;;;;;;;;;17.20;99.90;;;;;;4982658;28;20382;-77
2023/04/18 12:33:01;;;;;;;;;;;17.10;99.90;;;;;;4976664;28;19913;-76
2023/04/18 12:35:30;;;;;;;;;;;17.00;99.90;;;;;;4989875;28;19941;-76
2023/04/18 12:37:57;;;;;;;;;;;17.00;99.90;;;;;;4987541;28;20002;-76
2023/04/18 12:40:25;;;;;;;;;;;17.10;99.90;;;;;;4994158;28;19924;-77
2023/04/18 12:42:52;;;;;;;;;;;17.20;99.90;;;;;;4972882;28;19912;-77
2023/04/18 12:45:19;;;;;;;;;;;17.00;99.90;;;;;;4988941;28;19905;-75
2023/04/18 12:47:46;;;;;;;;;;;16.90;99.90;;;;;;4979924;28;19988;-74
2023/04/18 12:50:17;;;;;;;;;;;16.60;99.90;;;;;;4990602;28;20739;-74
2023/04/18 12:52:43;;;;;;;;;;;16.40;99.90;;;;;;4990084;28;19906;-74
2023/04/18 12:55:10;;;;;;;;;;;16.30;99.90;;;;;;4974026;28;19909;-74
2023/04/18 12:57:36;;;;;;;;;;;16.00;99.90;;;;;;4990348;28;20356;-74
2023/04/18 13:00:06;;;;;;;;;;;15.80;99.90;;;;;;4976455;28;19972;-75
2023/04/18 13:02:35;;;;;;;;;;;15.70;99.90;;;;;;4979006;28;19960;-74
2023/04/18 13:05:02;;;;;;;;;;;15.70;99.90;;;;;;4982949;28;19909;-74
2023/04/18 13:07:28;;;;;;;;;;;15.60;99.90;;;;;;4987274;28;19921;-74
2023/04/18 13:09:54;;;;;;;;;;;15.60;99.90;;;;;;4988846;28;19918;-74
2023/04/18 13:12:19;;;;;;;;;;;15.70;99.90;;;;;;4990180;28;19905;-74
2023/04/18 13:14:47;;;;;;;;;;;15.60;99.90;;;;;;4991407;28;20351;-74
2023/04/18 13:17:14;;;;;;;;;;;15.60;99.90;;;;;;4994174;28;19920;-74
2023/04/18 13:19:40;;;;;;;;;;;15.60;99.90;;;;;;4985815;28;19910;-75
2023/04/18 13:22:07;;;;;;;;;;;15.50;99.90;;;;;;4980494;28;19958;-74
2023/04/18 13:24:33;;;;;;;;;;;15.60;99.90;;;;;;4979304;28;20590;-73
2023/04/18 13:26:58;;;;;;;;;;;15.70;99.90;;;;;;4974150;28;19917;-74
2023/04/18 13:29:24;;;;;;;;;;;15.70;99.90;;;;;;4975912;28;20366;-73
2023/04/18 15:07:44;;;;;;;;;;;14.90;99.90;;;;;;5184682;22;19925;-76
2023/04/18 15:10:11;;;;;;;;;;;14.70;99.90;;;;;;5005561;28;19910;-79
2023/04/18 15:12:45;;;;;;;;;;;14.60;99.90;;;;;;4999042;28;20492;-76
2023/04/18 15:15:11;;;;;;;;;;;14.60;99.90;;;;;;5000739;28;20343;-76
2023/04/18 15:17:40;;;;;;;;;;;14.50;99.90;;;;;;4984561;28;20004;-75
2023/04/18 15:20:06;;;;;;;;;;;14.50;99.90;;;;;;5000811;28;19909;-76
2023/04/18 15:22:33;;;;;;;;;;;14.40;99.90;;;;;;4985082;28;20355;-76
2023/04/18 15:25:07;;;;;;;;;;;14.50;99.90;;;;;;4999969;28;19917;-76
2023/04/18 15:27:33;;;;;;;;;;;14.40;99.90;;;;;;4984068;28;19936;-75
2023/04/18 15:29:59;;;;;;;;;;;14.40;99.90;;;;;;4987161;28;19913;-75
2023/04/18 15:32:31;;;;;;;;;;;14.30;99.90;;;;;;4989995;28;19960;-75
2023/04/18 15:34:57;;;;;;;;;;;14.10;99.90;;;;;;4996050;28;19961;-76
2023/04/18 15:37:23;;;;;;;;;;;14.00;99.90;;;;;;4991287;28;19941;-76
2023/04/18 15:39:50;;;;;;;;;;;13.80;99.90;;;;;;4995956;28;19905;-76
2023/04/18 15:42:16;;;;;;;;;;;13.70;99.90;;;;;;4984884;28;19909;-76
2023/04/18 15:44:45;;;;;;;;;;;13.60;99.90;;;;;;4980528;28;19960;-77
2023/04/18 15:47:15;;;;;;;;;;;13.60;99.90;;;;;;4992996;28;19963;-75
2023/04/18 15:49:53;;;;;;;;;;;13.40;99.90;;;;;;4992552;28;19957;-76
2023/04/18 15:52:19;;;;;;;;;;;13.40;99.90;;;;;;4979766;28;20270;-76
2023/04/18 15:54:45;;;;;;;;;;;13.40;99.90;;;;;;4978829;28;19912;-75
2023/04/18 15:57:12;;;;;;;;;;;13.30;99.90;;;;;;4990471;28;19905;-76
2023/04/18 15:59:45;;;;;;;;;;;13.30;99.90;;;;;;4990750;28;19913;-76